sensor_id;sensor_type;location;lat;lon;timestamp;temperature;humidity
8008;DHT22;4049;49.468;11.200;2022-09-13T00:01:02;12.50;99.90
8008;DHT22;4049;49.468;11.200;2022-09-13T00:03:31;12.40;99.90
8008;DHT22;4049;49.468;11.200;2022-09-13T00:06:06;12.40;99.90
8008;DHT22;4049;49.468;11.200;2022-09-13T00:08:33;12.40;99.90
8008;DHT22;4049;49.468;11.200;2022-09-13T00:11:00;12.40;99.90
8008;DHT22;4049;49.468;11.200;2022-09-13T00:13:28;12.40;99.90
8008;DHT22;4049;49.468;11.200;2022-09-13T00:15:55;12.40;99.90
8008;DHT22;4049;49.468;11.200;2022-09-13T00:18:23;12.40;99.90
8008;DHT22;4049;49.468;11.200;2022-09-13T00:20:50;12.40;99.90
8008;DHT22;4049;49.468;11.200;2022-09-13T00:23:17;12.30;99.90
8008;DHT22;4049;49.468;11.200;2022-09-13T00:25:43;12.30;99.90
8008;DHT22;4049;49.468;11.200;2022-09-13T00:28:10;12.20;99.90
8008;DHT22;4049;49.468;11.200;2022-09-13T00:30:38;12.20;99.90
8008;DHT22;4049;49.468;11.200;2022-09-13T00:33:05;12.10;99.90
8008;DHT22;4049;49.468;11.200;2022-09-13T00:35:32;12.10;99.90
8008;DHT22;4049;49.468;11.200;2022-09-13T00:38:00;12.10;99.90
8008;DHT22;4049;49.468;11.200;2022-09-13T00:40:27;12.00;99.90
8008;DHT22;4049;49.468;11.200;2022-09-13T00:42:55;12.00;99.90
8008;DHT22;4049;49.468;11.200;2022-09-13T00:45:22;12.00;99.90
8008;DHT22;4049;49.468;11.200;2022-09-13T00:47:54;11.90;99.90
8008;DHT22;4049;49.468;11.200;2022-09-13T00:50:26;11.90;99.90
8008;DHT22;4049;49.468;11.200;2022-09-13T00:52:57;11.90;99.90
8008;DHT22;4049;49.468;11.200;2022-09-13T00:55:28;11.80;99.90
8008;DHT22;4049;49.468;11.200;2022-09-13T00:58:00;11.80;99.90
8008;DHT22;4049;49.468;11.200;2022-09-13T01:00:29;11.70;99.90
8008;DHT22;4049;49.468;11.200;2022-09-13T01:02:59;11.70;99.90
8008;DHT22;4049;49.468;11.200;2022-09-13T01:05:30;11.70;99.90
8008;DHT22;4049;49.468;11.200;2022-09-13T01:07:59;11.70;99.90
8008;DHT22;4049;49.468;11.200;2022-09-13T01:10:26;11.70;99.90
8008;DHT22;4049;49.468;11.200;2022-09-13T01:13:00;11.70;99.90
8008;DHT22;4049;49.468;11.200;2022-09-13T01:15:29;11.60;99.90
8008;DHT22;4049;49.468;11.200;2022-09-13T01:17:57;11.60;99.90
8008;DHT22;4049;49.468;11.200;2022-09-13T01:20:36;11.60;99.90
8008;DHT22;4049;49.468;11.200;2022-09-13T01:23:33;11.60;99.90
8008;DHT22;4049;49.468;11.200;2022-09-13T01:29:39;11.50;99.90
8008;DHT22;4049;49.468;11.200;2022-09-13T01:32:21;11.50;99.90
8008;DHT22;4049;49.468;11.200;2022-09-13T01:34:57;11.50;99.90
8008;DHT22;4049;49.468;11.200;2022-09-13T01:37:38;11.40;99.90
8008;DHT22;4049;49.468;11.200;2022-09-13T01:40:17;11.40;99.90
8008;DHT22;4049;49.468;11.200;2022-09-13T01:43:01;11.40;99.90
8008;DHT22;4049;49.468;11.200;2022-09-13T01:45:38;11.40;99.90
8008;DHT22;4049;49.468;11.200;2022-09-13T01:48:14;11.30;99.90
8008;DHT22;4049;49.468;11.200;2022-09-13T01:50:46;11.30;99.90
8008;DHT22;4049;49.468;11.200;2022-09-13T01:53:23;11.30;99.90
8008;DHT22;4049;49.468;11.200;2022-09-13T01:55:59;11.20;99.90
8008;DHT22;4049;49.468;11.200;2022-09-13T01:58:36;11.20;99.90
8008;DHT22;4049;49.468;11.200;2022-09-13T02:01:07;11.20;99.90
8008;DHT22;4049;49.468;11.200;2022-09-13T02:03:43;11.10;99.90
8008;DHT22;4049;49.468;11.200;2022-09-13T02:06:16;11.10;99.90
8008;DHT22;4049;49.468;11.200;2022-09-13T02:08:47;11.10;99.90
8008;DHT22;4049;49.468;11.200;2022-09-13T02:11:16;11.10;99.90
8008;DHT22;4049;49.468;11.200;2022-09-13T02:13:48;11.00;99.90
8008;DHT22;4049;49.468;11.200;2022-09-13T02:16:20;11.00;99.90
8008;DHT22;4049;49.468;11.200;2022-09-13T02:18:54;11.00;99.90
8008;DHT22;4049;49.468;11.200;2022-09-13T02:21:27;10.90;99.90
8008;DHT22;4049;49.468;11.200;2022-09-13T02:23:58;10.90;99.90
8008;DHT22;4049;49.468;11.200;2022-09-13T02:26:28;10.90;99.90
8008;DHT22;4049;49.468;11.200;2022-09-13T02:28:58;10.90;99.90
8008;DHT22;4049;49.468;11.200;2022-09-13T02:31:31;10.80;99.90
8008;DHT22;4049;49.468;11.200;2022-09-13T02:34:03;10.80;99.90
8008;DHT22;4049;49.468;11.200;2022-09-13T02:36:34;10.80;99.90
8008;DHT22;4049;49.468;11.200;2022-09-13T02:39:04;10.80;99.90
8008;DHT22;4049;49.468;11.200;2022-09-13T02:41:41;10.80;99.90
8008;DHT22;4049;49.468;11.200;2022-09-13T02:44:12;10.70;99.90
8008;DHT22;4049;49.468;11.200;2022-09-13T02:46:51;10.70;99.90
8008;DHT22;4049;49.468;11.200;2022-09-13T02:49:25;10.70;99.90
8008;DHT22;4049;49.468;11.200;2022-09-13T02:51:56;10.70;99.90
8008;DHT22;4049;49.468;11.200;2022-09-13T02:54:33;10.60;99.90
8008;DHT22;4049;49.468;11.200;2022-09-13T02:57:06;10.60;99.90
8008;DHT22;4049;49.468;11.200;2022-09-13T02:59:34;10.60;99.90
8008;DHT22;4049;49.468;11.200;2022-09-13T03:02:04;10.60;99.90
8008;DHT22;4049;49.468;11.200;2022-09-13T03:04:33;10.70;99.90
8008;DHT22;4049;49.468;11.200;2022-09-13T03:07:00;10.60;99.90
8008;DHT22;4049;49.468;11.200;2022-09-13T03:09:29;10.60;99.90
8008;DHT22;4049;49.468;11.200;2022-09-13T03:15:05;10.60;99.90
8008;DHT22;4049;49.468;11.200;2022-09-13T03:17:45;10.50;99.90
8008;DHT22;4049;49.468;11.200;2022-09-13T03:20:22;10.50;99.90
8008;DHT22;4049;49.468;11.200;2022-09-13T03:23:09;10.50;99.90
8008;DHT22;4049;49.468;11.200;2022-09-13T03:28:48;10.50;99.90
8008;DHT22;4049;49.468;11.200;2022-09-13T03:31:25;10.50;99.90
8008;DHT22;4049;49.468;11.200;2022-09-13T03:33:58;10.50;99.90
8008;DHT22;4049;49.468;11.200;2022-09-13T03:36:34;10.50;99.90
8008;DHT22;4049;49.468;11.200;2022-09-13T03:39:08;10.40;99.90
8008;DHT22;4049;49.468;11.200;2022-09-13T03:41:41;10.40;99.90
8008;DHT22;4049;49.468;11.200;2022-09-13T03:44:13;10.40;99.90
8008;DHT22;4049;49.468;11.200;2022-09-13T03:46:43;10.40;99.90
8008;DHT22;4049;49.468;11.200;2022-09-13T03:49:13;10.40;99.90
8008;DHT22;4049;49.468;11.200;2022-09-13T03:51:42;10.40;99.90
8008;DHT22;4049;49.468;11.200;2022-09-13T03:54:13;10.40;99.90
8008;DHT22;4049;49.468;11.200;2022-09-13T03:56:42;10.40;99.90
8008;DHT22;4049;49.468;11.200;2022-09-13T03:59:09;10.40;99.90
8008;DHT22;4049;49.468;11.200;2022-09-13T04:01:36;10.40;99.90
8008;DHT22;4049;49.468;11.200;2022-09-13T04:04:02;10.40;99.90
8008;DHT22;4049;49.468;11.200;2022-09-13T04:06:29;10.40;99.90
8008;DHT22;4049;49.468;11.200;2022-09-13T04:08:57;10.40;99.90
8008;DHT22;4049;49.468;11.200;2022-09-13T04:11:24;10.40;99.90
8008;DHT22;4049;49.468;11.200;2022-09-13T04:13:51;10.40;99.90
8008;DHT22;4049;49.468;11.200;2022-09-13T04:16:18;10.30;99.90
8008;DHT22;4049;49.468;11.200;2022-09-13T04:18:45;10.30;99.90
8008;DHT22;4049;49.468;11.200;2022-09-13T04:21:12;10.30;99.90
8008;DHT22;4049;49.468;11.200;2022-09-13T04:23:40;10.30;99.90
8008;DHT22;4049;49.468;11.200;2022-09-13T04:26:09;10.30;99.90
8008;DHT22;4049;49.468;11.200;2022-09-13T04:28:36;10.30;99.90
8008;DHT22;4049;49.468;11.200;2022-09-13T04:31:03;10.30;99.90
8008;DHT22;4049;49.468;11.200;2022-09-13T04:33:30;10.30;99.90
8008;DHT22;4049;49.468;11.200;2022-09-13T04:35:57;10.30;99.90
8008;DHT22;4049;49.468;11.200;2022-09-13T04:38:25;10.20;99.90
8008;DHT22;4049;49.468;11.200;2022-09-13T04:40:53;10.20;99.90
8008;DHT22;4049;49.468;11.200;2022-09-13T04:43:21;10.10;99.90
8008;DHT22;4049;49.468;11.200;2022-09-13T04:45:48;10.10;99.90
8008;DHT22;4049;49.468;11.200;2022-09-13T04:48:15;10.10;99.90
8008;DHT22;4049;49.468;11.200;2022-09-13T04:50:42;10.10;99.90
8008;DHT22;4049;49.468;11.200;2022-09-13T04:53:09;10.10;99.90
8008;DHT22;4049;49.468;11.200;2022-09-13T04:55:36;10.10;99.90
8008;DHT22;4049;49.468;11.200;2022-09-13T04:58:03;10.10;99.90
8008;DHT22;4049;49.468;11.200;2022-09-13T05:00:32;10.10;99.90
8008;DHT22;4049;49.468;11.200;2022-09-13T05:02:59;10.10;99.90
8008;DHT22;4049;49.468;11.200;2022-09-13T05:05:26;10.10;99.90
8008;DHT22;4049;49.468;11.200;2022-09-13T05:07:55;10.10;99.90
8008;DHT22;4049;49.468;11.200;2022-09-13T05:10:22;10.10;99.90
8008;DHT22;4049;49.468;11.200;2022-09-13T05:12:49;10.10;99.90
8008;DHT22;4049;49.468;11.200;2022-09-13T05:15:16;10.10;99.90
8008;DHT22;4049;49.468;11.200;2022-09-13T05:17:45;10.10;99.90
8008;DHT22;4049;49.468;11.200;2022-09-13T05:20:11;10.10;99.90
8008;DHT22;4049;49.468;11.200;2022-09-13T05:22:38;10.10;99.90
8008;DHT22;4049;49.468;11.200;2022-09-13T05:25:07;10.10;99.90
8008;DHT22;4049;49.468;11.200;2022-09-13T05:27:33;10.10;99.90
8008;DHT22;4049;49.468;11.200;2022-09-13T05:30:00;10.10;99.90
8008;DHT22;4049;49.468;11.200;2022-09-13T05:32:28;10.10;99.90
8008;DHT22;4049;49.468;11.200;2022-09-13T05:34:57;10.10;99.90
8008;DHT22;4049;49.468;11.200;2022-09-13T05:37:24;10.20;99.90
8008;DHT22;4049;49.468;11.200;2022-09-13T05:39:51;10.30;99.90
8008;DHT22;4049;49.468;11.200;2022-09-13T05:42:18;10.30;99.90
8008;DHT22;4049;49.468;11.200;2022-09-13T05:44:45;10.40;99.90
8008;DHT22;4049;49.468;11.200;2022-09-13T05:47:12;10.40;99.90
8008;DHT22;4049;49.468;11.200;2022-09-13T05:49:39;10.50;99.90
8008;DHT22;4049;49.468;11.200;2022-09-13T05:52:07;10.60;99.90
8008;DHT22;4049;49.468;11.200;2022-09-13T05:54:34;10.60;99.90
8008;DHT22;4049;49.468;11.200;2022-09-13T05:57:02;10.70;99.90
8008;DHT22;4049;49.468;11.200;2022-09-13T05:59:30;10.80;99.90
8008;DHT22;4049;49.468;11.200;2022-09-13T06:01:57;10.90;99.90
8008;DHT22;4049;49.468;11.200;2022-09-13T06:04:24;11.00;99.90
8008;DHT22;4049;49.468;11.200;2022-09-13T06:06:51;11.10;99.90
8008;DHT22;4049;49.468;11.200;2022-09-13T06:09:19;11.20;99.90
8008;DHT22;4049;49.468;11.200;2022-09-13T06:11:46;11.30;99.90
8008;DHT22;4049;49.468;11.200;2022-09-13T06:14:13;11.40;99.90
8008;DHT22;4049;49.468;11.200;2022-09-13T06:16:40;11.50;99.90
8008;DHT22;4049;49.468;11.200;2022-09-13T06:19:07;11.60;99.90
8008;DHT22;4049;49.468;11.200;2022-09-13T06:21:33;11.70;99.90
8008;DHT22;4049;49.468;11.200;2022-09-13T06:24:01;11.80;99.90
8008;DHT22;4049;49.468;11.200;2022-09-13T06:26:29;11.80;99.90
8008;DHT22;4049;49.468;11.200;2022-09-13T06:28:56;11.90;99.90
8008;DHT22;4049;49.468;11.200;2022-09-13T06:31:25;12.00;99.90
8008;DHT22;4049;49.468;11.200;2022-09-13T06:33:55;12.00;99.90
8008;DHT22;4049;49.468;11.200;2022-09-13T06:36:23;12.10;99.90
8008;DHT22;4049;49.468;11.200;2022-09-13T06:38:50;12.20;99.90
8008;DHT22;4049;49.468;11.200;2022-09-13T06:41:19;12.20;99.90
8008;DHT22;4049;49.468;11.200;2022-09-13T06:43:51;12.30;99.90
8008;DHT22;4049;49.468;11.200;2022-09-13T06:46:19;12.40;99.90
8008;DHT22;4049;49.468;11.200;2022-09-13T06:48:46;12.40;99.90
8008;DHT22;4049;49.468;11.200;2022-09-13T06:51:15;12.50;99.90
8008;DHT22;4049;49.468;11.200;2022-09-13T06:53:44;12.60;99.90
8008;DHT22;4049;49.468;11.200;2022-09-13T06:56:13;12.70;99.90
8008;DHT22;4049;49.468;11.200;2022-09-13T06:58:43;12.80;99.90
8008;DHT22;4049;49.468;11.200;2022-09-13T07:01:13;12.90;99.90
8008;DHT22;4049;49.468;11.200;2022-09-13T07:03:42;13.00;99.90
8008;DHT22;4049;49.468;11.200;2022-09-13T07:06:12;13.10;99.90
8008;DHT22;4049;49.468;11.200;2022-09-13T07:08:39;13.10;99.90
8008;DHT22;4049;49.468;11.200;2022-09-13T07:11:07;13.20;99.90
8008;DHT22;4049;49.468;11.200;2022-09-13T07:13:35;13.30;99.90
8008;DHT22;4049;49.468;11.200;2022-09-13T07:16:04;13.40;99.90
8008;DHT22;4049;49.468;11.200;2022-09-13T07:18:32;13.50;99.90
8008;DHT22;4049;49.468;11.200;2022-09-13T07:21:00;13.50;99.90
8008;DHT22;4049;49.468;11.200;2022-09-13T07:23:29;13.60;99.90
8008;DHT22;4049;49.468;11.200;2022-09-13T07:25:56;13.70;99.90
8008;DHT22;4049;49.468;11.200;2022-09-13T07:28:28;13.80;99.90
8008;DHT22;4049;49.468;11.200;2022-09-13T07:30:56;13.90;99.90
8008;DHT22;4049;49.468;11.200;2022-09-13T07:33:24;14.00;99.90
8008;DHT22;4049;49.468;11.200;2022-09-13T07:35:56;14.10;99.90
8008;DHT22;4049;49.468;11.200;2022-09-13T07:38:24;14.20;99.90
8008;DHT22;4049;49.468;11.200;2022-09-13T07:40:55;14.30;99.90
8008;DHT22;4049;49.468;11.200;2022-09-13T07:43:24;14.40;99.90
8008;DHT22;4049;49.468;11.200;2022-09-13T07:45:58;14.50;99.90
8008;DHT22;4049;49.468;11.200;2022-09-13T07:48:26;14.60;99.90
8008;DHT22;4049;49.468;11.200;2022-09-13T07:51:03;14.70;99.90
8008;DHT22;4049;49.468;11.200;2022-09-13T07:53:31;14.90;99.90
8008;DHT22;4049;49.468;11.200;2022-09-13T07:56:02;15.00;99.90
8008;DHT22;4049;49.468;11.200;2022-09-13T07:58:31;15.20;99.90
8008;DHT22;4049;49.468;11.200;2022-09-13T08:01:03;15.30;99.90
8008;DHT22;4049;49.468;11.200;2022-09-13T08:03:30;15.50;99.90
8008;DHT22;4049;49.468;11.200;2022-09-13T08:05:57;15.60;99.90
8008;DHT22;4049;49.468;11.200;2022-09-13T08:08:26;15.70;99.90
8008;DHT22;4049;49.468;11.200;2022-09-13T08:10:53;15.80;99.90
8008;DHT22;4049;49.468;11.200;2022-09-13T08:13:20;16.00;99.90
8008;DHT22;4049;49.468;11.200;2022-09-13T08:15:47;16.10;99.90
8008;DHT22;4049;49.468;11.200;2022-09-13T08:18:14;16.20;99.90
8008;DHT22;4049;49.468;11.200;2022-09-13T08:20:41;16.30;99.90
8008;DHT22;4049;49.468;11.200;2022-09-13T08:23:09;16.40;99.90
8008;DHT22;4049;49.468;11.200;2022-09-13T08:25:38;16.50;99.90
8008;DHT22;4049;49.468;11.200;2022-09-13T08:28:06;16.50;99.90
8008;DHT22;4049;49.468;11.200;2022-09-13T08:30:33;16.60;99.90
8008;DHT22;4049;49.468;11.200;2022-09-13T08:33:01;16.60;99.90
8008;DHT22;4049;49.468;11.200;2022-09-13T08:35:29;16.70;99.90
8008;DHT22;4049;49.468;11.200;2022-09-13T08:37:56;16.80;99.90
8008;DHT22;4049;49.468;11.200;2022-09-13T08:40:25;16.90;99.90
8008;DHT22;4049;49.468;11.200;2022-09-13T08:42:58;17.00;99.90
8008;DHT22;4049;49.468;11.200;2022-09-13T08:45:27;17.00;99.90
8008;DHT22;4049;49.468;11.200;2022-09-13T08:47:57;17.10;99.90
8008;DHT22;4049;49.468;11.200;2022-09-13T08:50:26;17.20;99.90
8008;DHT22;4049;49.468;11.200;2022-09-13T08:53:02;17.30;99.90
8008;DHT22;4049;49.468;11.200;2022-09-13T08:55:42;17.40;99.90
8008;DHT22;4049;49.468;11.200;2022-09-13T08:58:48;17.50;99.90
8008;DHT22;4049;49.468;11.200;2022-09-13T09:01:25;17.70;99.90
8008;DHT22;4049;49.468;11.200;2022-09-13T09:04:00;17.80;99.90
8008;DHT22;4049;49.468;11.200;2022-09-13T09:06:28;18.00;99.90
8008;DHT22;4049;49.468;11.200;2022-09-13T09:08:58;18.10;99.90
8008;DHT22;4049;49.468;11.200;2022-09-13T09:11:30;18.20;99.90
8008;DHT22;4049;49.468;11.200;2022-09-13T09:14:05;18.30;99.90
8008;DHT22;4049;49.468;11.200;2022-09-13T09:16:39;18.30;99.90
8008;DHT22;4049;49.468;11.200;2022-09-13T09:19:15;18.30;99.90
8008;DHT22;4049;49.468;11.200;2022-09-13T09:21:44;18.30;99.90
8008;DHT22;4049;49.468;11.200;2022-09-13T09:24:16;18.50;99.90
8008;DHT22;4049;49.468;11.200;2022-09-13T09:26:44;18.50;99.90
8008;DHT22;4049;49.468;11.200;2022-09-13T09:29:16;18.60;99.90
8008;DHT22;4049;49.468;11.200;2022-09-13T09:31:49;18.70;99.90
8008;DHT22;4049;49.468;11.200;2022-09-13T09:34:26;18.80;99.90
8008;DHT22;4049;49.468;11.200;2022-09-13T09:37:10;18.90;99.90
8008;DHT22;4049;49.468;11.200;2022-09-13T09:39:42;18.90;99.90
8008;DHT22;4049;49.468;11.200;2022-09-13T09:42:12;19.00;99.90
8008;DHT22;4049;49.468;11.200;2022-09-13T09:44:43;19.00;99.90
8008;DHT22;4049;49.468;11.200;2022-09-13T09:47:16;19.00;99.90
8008;DHT22;4049;49.468;11.200;2022-09-13T09:49:45;18.90;99.90
8008;DHT22;4049;49.468;11.200;2022-09-13T09:52:34;18.90;99.90
8008;DHT22;4049;49.468;11.200;2022-09-13T09:55:16;19.00;99.90
8008;DHT22;4049;49.468;11.200;2022-09-13T09:57:52;19.00;99.90
8008;DHT22;4049;49.468;11.200;2022-09-13T10:00:23;19.10;99.90
8008;DHT22;4049;49.468;11.200;2022-09-13T10:02:54;19.10;99.90
8008;DHT22;4049;49.468;11.200;2022-09-13T10:05:22;19.10;99.90
8008;DHT22;4049;49.468;11.200;2022-09-13T10:07:56;19.20;99.90
8008;DHT22;4049;49.468;11.200;2022-09-13T10:10:28;19.20;99.90
8008;DHT22;4049;49.468;11.200;2022-09-13T10:13:00;19.20;99.90
8008;DHT22;4049;49.468;11.200;2022-09-13T10:15:30;19.20;99.90
8008;DHT22;4049;49.468;11.200;2022-09-13T10:18:09;19.20;99.90
8008;DHT22;4049;49.468;11.200;2022-09-13T10:20:38;19.20;99.90
8008;DHT22;4049;49.468;11.200;2022-09-13T10:23:18;19.30;99.90
8008;DHT22;4049;49.468;11.200;2022-09-13T10:26:05;19.20;99.90
8008;DHT22;4049;49.468;11.200;2022-09-13T10:28:35;19.40;99.90
8008;DHT22;4049;49.468;11.200;2022-09-13T10:31:05;19.50;99.90
8008;DHT22;4049;49.468;11.200;2022-09-13T10:33:37;19.60;99.90
8008;DHT22;4049;49.468;11.200;2022-09-13T10:36:06;19.70;99.90
8008;DHT22;4049;49.468;11.200;2022-09-13T10:38:38;19.80;99.90
8008;DHT22;4049;49.468;11.200;2022-09-13T10:41:09;19.90;99.90
8008;DHT22;4049;49.468;11.200;2022-09-13T10:43:37;19.90;99.90
8008;DHT22;4049;49.468;11.200;2022-09-13T10:46:11;20.00;99.90
8008;DHT22;4049;49.468;11.200;2022-09-13T10:48:47;20.00;99.90
8008;DHT22;4049;49.468;11.200;2022-09-13T10:51:30;20.10;99.90
8008;DHT22;4049;49.468;11.200;2022-09-13T10:54:22;20.20;99.90
8008;DHT22;4049;49.468;11.200;2022-09-13T10:56:49;20.30;99.90
8008;DHT22;4049;49.468;11.200;2022-09-13T10:59:20;20.40;99.90
8008;DHT22;4049;49.468;11.200;2022-09-13T11:02:02;20.50;99.90
8008;DHT22;4049;49.468;11.200;2022-09-13T11:04:55;20.70;99.90
8008;DHT22;4049;49.468;11.200;2022-09-13T11:07:38;20.80;99.90
8008;DHT22;4049;49.468;11.200;2022-09-13T11:10:14;21.00;99.90
8008;DHT22;4049;49.468;11.200;2022-09-13T11:12:48;21.20;99.90
8008;DHT22;4049;49.468;11.200;2022-09-13T11:15:26;21.50;99.90
8008;DHT22;4049;49.468;11.200;2022-09-13T11:18:15;21.90;99.90
8008;DHT22;4049;49.468;11.200;2022-09-13T11:20:53;22.30;99.90
8008;DHT22;4049;49.468;11.200;2022-09-13T11:23:41;22.50;99.90
8008;DHT22;4049;49.468;11.200;2022-09-13T11:26:38;22.70;99.90
8008;DHT22;4049;49.468;11.200;2022-09-13T11:29:17;22.40;99.90
8008;DHT22;4049;49.468;11.200;2022-09-13T11:31:54;22.40;99.90
8008;DHT22;4049;49.468;11.200;2022-09-13T11:34:33;22.30;99.90
8008;DHT22;4049;49.468;11.200;2022-09-13T11:37:28;22.40;99.90
8008;DHT22;4049;49.468;11.200;2022-09-13T11:40:06;22.40;99.90
8008;DHT22;4049;49.468;11.200;2022-09-13T11:42:45;22.30;99.90
8008;DHT22;4049;49.468;11.200;2022-09-13T11:45:20;22.40;99.90
8008;DHT22;4049;49.468;11.200;2022-09-13T11:50:48;22.30;99.90
8008;DHT22;4049;49.468;11.200;2022-09-13T11:53:38;22.30;99.90
8008;DHT22;4049;49.468;11.200;2022-09-13T11:56:09;22.30;99.90
8008;DHT22;4049;49.468;11.200;2022-09-13T11:58:43;22.30;99.90
8008;DHT22;4049;49.468;11.200;2022-09-13T12:01:16;22.00;99.90
8008;DHT22;4049;49.468;11.200;2022-09-13T12:03:50;21.90;99.90
8008;DHT22;4049;49.468;11.200;2022-09-13T12:06:23;21.80;99.90
8008;DHT22;4049;49.468;11.200;2022-09-13T12:08:55;21.70;99.90
8008;DHT22;4049;49.468;11.200;2022-09-13T12:11:27;21.60;99.90
8008;DHT22;4049;49.468;11.200;2022-09-13T12:13:59;21.60;99.90
8008;DHT22;4049;49.468;11.200;2022-09-13T12:16:30;21.60;99.90
8008;DHT22;4049;49.468;11.200;2022-09-13T12:18:59;21.50;99.90
8008;DHT22;4049;49.468;11.200;2022-09-13T12:21:31;21.40;99.90
8008;DHT22;4049;49.468;11.200;2022-09-13T12:24:04;21.30;99.90
8008;DHT22;4049;49.468;11.200;2022-09-13T12:26:36;21.30;99.90
8008;DHT22;4049;49.468;11.200;2022-09-13T12:29:10;21.20;99.90
8008;DHT22;4049;49.468;11.200;2022-09-13T12:31:39;21.20;99.90
8008;DHT22;4049;49.468;11.200;2022-09-13T12:34:10;21.20;99.90
8008;DHT22;4049;49.468;11.200;2022-09-13T12:37:09;21.10;99.90
8008;DHT22;4049;49.468;11.200;2022-09-13T12:40:10;21.00;99.90
8008;DHT22;4049;49.468;11.200;2022-09-13T12:42:55;21.00;99.90
8008;DHT22;4049;49.468;11.200;2022-09-13T12:45:41;20.90;99.90
8008;DHT22;4049;49.468;11.200;2022-09-13T12:48:26;20.80;99.90
8008;DHT22;4049;49.468;11.200;2022-09-13T12:51:04;20.80;99.90
8008;DHT22;4049;49.468;11.200;2022-09-13T12:54:24;20.80;99.90
8008;DHT22;4049;49.468;11.200;2022-09-13T12:57:02;20.70;99.90
8008;DHT22;4049;49.468;11.200;2022-09-13T12:59:48;20.80;99.90
8008;DHT22;4049;49.468;11.200;2022-09-13T13:02:35;20.70;99.90
8008;DHT22;4049;49.468;11.200;2022-09-13T13:05:05;20.70;99.90
8008;DHT22;4049;49.468;11.200;2022-09-13T13:07:41;20.70;99.90
8008;DHT22;4049;49.468;11.200;2022-09-13T13:10:24;20.70;99.90
8008;DHT22;4049;49.468;11.200;2022-09-13T13:12:51;20.70;99.90
8008;DHT22;4049;49.468;11.200;2022-09-13T13:18:26;20.70;99.90
8008;DHT22;4049;49.468;11.200;2022-09-13T13:24:42;20.70;99.90
8008;DHT22;4049;49.468;11.200;2022-09-13T13:27:35;20.70;99.90
8008;DHT22;4049;49.468;11.200;2022-09-13T13:30:39;20.70;99.90
8008;DHT22;4049;49.468;11.200;2022-09-13T13:33:14;20.70;99.90
8008;DHT22;4049;49.468;11.200;2022-09-13T13:35:42;20.70;99.90
8008;DHT22;4049;49.468;11.200;2022-09-13T13:50:23;21.00;99.90
8008;DHT22;4049;49.468;11.200;2022-09-13T13:52:52;21.10;99.90
8008;DHT22;4049;49.468;11.200;2022-09-13T13:55:41;21.10;99.90
8008;DHT22;4049;49.468;11.200;2022-09-13T13:58:30;21.20;99.90
8008;DHT22;4049;49.468;11.200;2022-09-13T14:00:59;21.30;99.90
8008;DHT22;4049;49.468;11.200;2022-09-13T14:03:49;21.30;99.90
8008;DHT22;4049;49.468;11.200;2022-09-13T14:06:23;21.30;99.90
8008;DHT22;4049;49.468;11.200;2022-09-13T14:09:05;21.40;99.90
8008;DHT22;4049;49.468;11.200;2022-09-13T14:11:46;21.30;99.90
8008;DHT22;4049;49.468;11.200;2022-09-13T14:14:26;21.40;99.90
8008;DHT22;4049;49.468;11.200;2022-09-13T14:17:23;21.40;99.90
8008;DHT22;4049;49.468;11.200;2022-09-13T14:19:49;21.40;99.90
8008;DHT22;4049;49.468;11.200;2022-09-13T14:22:21;21.50;99.90
8008;DHT22;4049;49.468;11.200;2022-09-13T14:24:49;21.50;99.90
8008;DHT22;4049;49.468;11.200;2022-09-13T14:27:19;21.50;99.90
8008;DHT22;4049;49.468;11.200;2022-09-13T14:29:49;21.50;99.90
8008;DHT22;4049;49.468;11.200;2022-09-13T14:32:19;21.50;99.90
8008;DHT22;4049;49.468;11.200;2022-09-13T14:34:53;21.60;99.90
8008;DHT22;4049;49.468;11.200;2022-09-13T14:37:25;21.60;99.90
8008;DHT22;4049;49.468;11.200;2022-09-13T14:39:57;21.70;99.90
8008;DHT22;4049;49.468;11.200;2022-09-13T14:42:25;21.70;99.90
8008;DHT22;4049;49.468;11.200;2022-09-13T14:44:52;21.70;99.90
8008;DHT22;4049;49.468;11.200;2022-09-13T14:47:25;21.80;99.90
8008;DHT22;4049;49.468;11.200;2022-09-13T14:49:58;21.80;99.90
8008;DHT22;4049;49.468;11.200;2022-09-13T14:52:30;21.80;99.90
8008;DHT22;4049;49.468;11.200;2022-09-13T14:55:00;21.70;99.90
8008;DHT22;4049;49.468;11.200;2022-09-13T14:57:30;21.70;99.90
8008;DHT22;4049;49.468;11.200;2022-09-13T15:00:03;21.60;99.90
8008;DHT22;4049;49.468;11.200;2022-09-13T15:02:36;21.60;99.90
8008;DHT22;4049;49.468;11.200;2022-09-13T15:05:06;21.60;99.90
8008;DHT22;4049;49.468;11.200;2022-09-13T15:07:37;21.60;99.90
8008;DHT22;4049;49.468;11.200;2022-09-13T15:10:20;21.70;99.90
8008;DHT22;4049;49.468;11.200;2022-09-13T15:12:53;21.80;99.90
8008;DHT22;4049;49.468;11.200;2022-09-13T15:15:36;21.80;99.90
8008;DHT22;4049;49.468;11.200;2022-09-13T15:18:05;21.80;99.90
8008;DHT22;4049;49.468;11.200;2022-09-13T15:20:45;21.80;99.90
8008;DHT22;4049;49.468;11.200;2022-09-13T15:23:16;21.80;99.90
8008;DHT22;4049;49.468;11.200;2022-09-13T15:25:52;21.80;99.90
8008;DHT22;4049;49.468;11.200;2022-09-13T15:28:22;21.80;99.90
8008;DHT22;4049;49.468;11.200;2022-09-13T15:30:49;21.80;99.90
8008;DHT22;4049;49.468;11.200;2022-09-13T15:33:22;21.70;99.90
8008;DHT22;4049;49.468;11.200;2022-09-13T15:35:50;21.70;99.90
8008;DHT22;4049;49.468;11.200;2022-09-13T15:38:28;21.70;99.90
8008;DHT22;4049;49.468;11.200;2022-09-13T15:41:00;21.70;99.90
8008;DHT22;4049;49.468;11.200;2022-09-13T15:43:27;21.60;99.90
8008;DHT22;4049;49.468;11.200;2022-09-13T15:45:56;21.60;99.90
8008;DHT22;4049;49.468;11.200;2022-09-13T15:48:27;21.60;99.90
8008;DHT22;4049;49.468;11.200;2022-09-13T15:51:06;21.60;99.90
8008;DHT22;4049;49.468;11.200;2022-09-13T15:53:36;21.50;99.90
8008;DHT22;4049;49.468;11.200;2022-09-13T15:56:05;21.50;99.90
8008;DHT22;4049;49.468;11.200;2022-09-13T15:58:33;21.40;99.90
8008;DHT22;4049;49.468;11.200;2022-09-13T16:01:00;21.30;99.90
8008;DHT22;4049;49.468;11.200;2022-09-13T16:03:27;21.30;99.90
8008;DHT22;4049;49.468;11.200;2022-09-13T16:05:54;21.20;99.90
8008;DHT22;4049;49.468;11.200;2022-09-13T16:08:22;21.20;99.90
8008;DHT22;4049;49.468;11.200;2022-09-13T16:10:50;21.20;99.90
8008;DHT22;4049;49.468;11.200;2022-09-13T16:13:18;21.20;99.90
8008;DHT22;4049;49.468;11.200;2022-09-13T16:15:45;21.20;99.90
8008;DHT22;4049;49.468;11.200;2022-09-13T16:18:12;21.20;99.90
8008;DHT22;4049;49.468;11.200;2022-09-13T16:20:40;21.20;99.90
8008;DHT22;4049;49.468;11.200;2022-09-13T16:23:07;21.20;99.90
8008;DHT22;4049;49.468;11.200;2022-09-13T16:25:35;21.20;99.90
8008;DHT22;4049;49.468;11.200;2022-09-13T16:28:03;21.10;99.90
8008;DHT22;4049;49.468;11.200;2022-09-13T16:30:31;21.10;99.90
8008;DHT22;4049;49.468;11.200;2022-09-13T16:32:59;21.00;99.90
8008;DHT22;4049;49.468;11.200;2022-09-13T16:35:28;21.00;99.90
8008;DHT22;4049;49.468;11.200;2022-09-13T16:37:55;21.00;99.90
8008;DHT22;4049;49.468;11.200;2022-09-13T16:40:23;21.00;99.90
8008;DHT22;4049;49.468;11.200;2022-09-13T16:42:50;20.90;99.90
8008;DHT22;4049;49.468;11.200;2022-09-13T16:45:18;20.90;99.90
8008;DHT22;4049;49.468;11.200;2022-09-13T16:47:45;20.80;99.90